createdAt,value
2018-02-01T00:02:03.336Z,48.67
2018-02-01T00:04:31.805Z,48.17
2018-02-01T00:07:00.301Z,50.60
2018-02-01T00:09:28.773Z,49.00
2018-02-01T00:11:57.272Z,49.70
2018-02-01T00:14:25.740Z,51.07
2018-02-01T00:16:54.244Z,50.40
2018-02-01T00:19:22.733Z,50.80
2018-02-01T00:21:51.224Z,49.73
2018-02-01T00:24:19.713Z,53.17
2018-02-01T00:26:48.218Z,51.97
2018-02-01T00:29:16.677Z,49.63
2018-02-01T00:31:45.214Z,51.30
2018-02-01T00:34:13.651Z,50.13
2018-02-01T00:36:42.161Z,52.53
2018-02-01T00:39:10.641Z,52.47
2018-02-01T00:41:39.137Z,51.50
2018-02-01T00:44:07.633Z,49.97
2018-02-01T00:46:36.094Z,50.30
2018-02-01T00:49:04.609Z,52.67
2018-02-01T00:51:33.058Z,51.57
2018-02-01T00:54:01.553Z,52.00
2018-02-01T00:56:30.014Z,51.13
2018-02-01T00:58:58.469Z,50.13
2018-02-01T01:01:26.957Z,50.00
2018-02-01T01:03:55.410Z,51.43
2018-02-01T01:06:23.913Z,51.50
2018-02-01T01:08:52.413Z,51.40
2018-02-01T01:11:20.939Z,51.43
2018-02-01T01:13:49.430Z,52.83
2018-02-01T01:16:17.893Z,52.47
2018-02-01T01:18:46.377Z,52.43
2018-02-01T01:21:14.833Z,49.50
2018-02-01T01:23:43.345Z,48.23
2018-02-01T01:26:11.813Z,50.30
2018-02-01T01:28:40.309Z,48.00
2018-02-01T01:31:08.799Z,46.17
2018-02-01T01:33:37.282Z,48.97
2018-02-01T01:36:05.772Z,50.07
2018-02-01T01:38:34.256Z,46.70
2018-02-01T01:41:02.757Z,43.73
2018-02-01T01:43:31.206Z,40.23
2018-02-01T01:46:11.478Z,44.33
2018-02-01T01:48:39.942Z,43.30
2018-02-01T01:51:08.446Z,45.97
2018-02-01T01:53:36.910Z,44.57
2018-02-01T01:56:05.368Z,40.83
2018-02-01T01:58:33.873Z,43.07
2018-02-01T02:01:02.326Z,41.10
2018-02-01T02:03:30.824Z,41.13
2018-02-01T02:05:59.330Z,39.67
2018-02-01T02:08:27.830Z,40.33
2018-02-01T02:10:56.277Z,44.90
2018-02-01T02:13:24.766Z,43.40
2018-02-01T02:15:53.266Z,46.43
2018-02-01T02:18:21.762Z,45.07
2018-02-01T02:20:50.237Z,46.20
2018-02-01T02:23:18.742Z,43.73
2018-02-01T02:25:47.212Z,42.87
2018-02-01T02:28:15.688Z,39.63
2018-02-01T02:30:44.195Z,42.27
2018-02-01T02:33:12.707Z,39.57
2018-02-01T02:35:41.233Z,36.50
2018-02-01T02:38:09.741Z,34.97
2018-02-01T02:40:38.213Z,34.77
2018-02-01T02:43:06.709Z,32.80
2018-02-01T02:45:35.238Z,34.37
2018-02-01T02:48:03.745Z,33.03
2018-02-01T02:50:32.222Z,31.77
2018-02-01T02:53:00.716Z,33.57
2018-02-01T02:55:29.199Z,30.93
2018-02-01T02:57:57.693Z,27.83
2018-02-01T03:00:26.195Z,27.77
2018-02-01T03:02:54.678Z,29.23
2018-02-01T03:05:23.158Z,28.57
2018-02-01T03:07:51.673Z,29.40
2018-02-01T03:10:20.147Z,31.13
2018-02-01T03:12:48.602Z,29.07
2018-02-01T03:15:17.119Z,28.50
2018-02-01T03:17:45.637Z,28.10
2018-02-01T03:20:14.169Z,30.53
2018-02-01T03:22:42.658Z,29.93
2018-02-01T03:25:11.117Z,30.13
2018-02-01T03:27:39.648Z,30.93
2018-02-01T03:30:08.153Z,29.83
2018-02-01T03:32:36.657Z,31.03
2018-02-01T03:35:05.134Z,31.13
2018-02-01T03:37:33.618Z,31.33
2018-02-01T03:40:02.116Z,30.57
2018-02-01T03:42:30.610Z,32.33
2018-02-01T03:44:59.077Z,32.17
2018-02-01T03:47:27.608Z,32.23
2018-02-01T03:49:56.053Z,33.67
2018-02-01T03:52:24.519Z,31.20
2018-02-01T03:54:53.021Z,31.00
2018-02-01T03:57:21.469Z,32.13
2018-02-01T03:59:49.941Z,32.13
2018-02-01T04:02:18.430Z,34.93
2018-02-01T04:04:46.966Z,35.83
2018-02-01T04:07:15.413Z,37.93
2018-02-01T04:09:43.913Z,39.60
2018-02-01T04:12:12.386Z,38.00
2018-02-01T04:14:40.949Z,40.27
2018-02-01T04:17:09.462Z,40.10
2018-02-01T04:19:37.918Z,41.30
2018-02-01T04:22:06.412Z,41.40
2018-02-01T04:24:34.905Z,41.30
2018-02-01T04:27:03.373Z,43.40
2018-02-01T04:29:31.925Z,41.93
2018-02-01T04:32:00.446Z,42.03
2018-02-01T04:34:28.894Z,39.47
2018-02-01T04:36:57.389Z,40.80
2018-02-01T04:39:25.853Z,40.60
2018-02-01T04:41:54.373Z,41.27
2018-02-01T04:44:22.834Z,43.33
2018-02-01T04:46:51.297Z,41.17
2018-02-01T04:49:19.792Z,39.70
2018-02-01T04:51:48.271Z,44.73
2018-02-01T04:54:16.758Z,45.80
2018-02-01T04:56:45.260Z,57.03
2018-02-01T04:59:13.718Z,60.63
2018-02-01T05:01:42.234Z,56.53
2018-02-01T05:04:10.706Z,55.10
2018-02-01T05:06:39.202Z,53.70
2018-02-01T05:09:07.693Z,50.17
2018-02-01T05:11:36.201Z,48.20
2018-02-01T05:14:04.650Z,49.23
2018-02-01T05:16:33.219Z,50.33
2018-02-01T05:19:01.692Z,55.87
2018-02-01T05:21:30.165Z,62.47
2018-02-01T05:23:58.654Z,71.17
2018-02-01T05:26:27.149Z,67.10
2018-02-01T05:28:55.646Z,59.60
2018-02-01T05:31:24.105Z,62.57
2018-02-01T05:33:52.605Z,74.83
2018-02-01T05:36:21.071Z,80.40
2018-02-01T05:38:49.569Z,77.20
2018-02-01T05:41:18.033Z,63.93
2018-02-01T05:43:46.533Z,62.73
2018-02-01T05:46:15.048Z,56.17
2018-02-01T05:48:43.510Z,55.33
2018-02-01T05:51:12.041Z,57.57
2018-02-01T05:53:40.544Z,52.77
2018-02-01T05:56:09.059Z,53.37
2018-02-01T05:58:37.539Z,49.13
2018-02-01T06:01:06.002Z,49.03
2018-02-01T06:03:34.536Z,50.83
2018-02-01T06:06:03.046Z,46.90
2018-02-01T06:08:31.537Z,46.90
2018-02-01T06:10:59.997Z,49.87
2018-02-01T06:13:28.515Z,53.73
2018-02-01T06:15:56.969Z,53.50
2018-02-01T06:18:25.442Z,51.50
2018-02-01T06:20:53.953Z,52.03
2018-02-01T06:23:22.410Z,52.20
2018-02-01T06:25:50.866Z,54.50
2018-02-01T06:28:19.361Z,51.53
2018-02-01T06:30:47.871Z,49.40
2018-02-01T06:33:16.333Z,50.60
2018-02-01T06:35:44.831Z,48.03
2018-02-01T06:38:13.289Z,49.07
2018-02-01T06:40:41.765Z,46.60
2018-02-01T06:43:10.258Z,46.53
2018-02-01T06:45:38.744Z,41.13
2018-02-01T06:48:07.254Z,39.70
2018-02-01T06:50:36.498Z,38.83
2018-02-01T06:53:05.037Z,35.50
2018-02-01T06:55:33.529Z,31.67
2018-02-01T06:58:01.997Z,31.23
2018-02-01T07:03:30.865Z,23.97
2018-02-01T07:05:59.391Z,25.70
2018-02-01T07:08:27.933Z,22.93
2018-02-01T07:10:56.527Z,23.87
2018-02-01T07:13:25.106Z,24.43
2018-02-01T07:15:53.643Z,23.23
2018-02-01T07:18:22.182Z,25.40
2018-02-01T07:20:50.713Z,24.47
2018-02-01T07:23:19.248Z,26.00
2018-02-01T07:25:47.832Z,26.83
2018-02-01T07:28:18.175Z,25.97
2018-02-01T07:30:46.698Z,25.80
2018-02-01T07:33:15.171Z,29.77
2018-02-01T07:35:43.704Z,30.73
2018-02-01T07:38:12.178Z,36.73
2018-02-01T07:40:40.674Z,35.13
2018-02-01T07:43:09.243Z,34.60
2018-02-01T07:45:38.344Z,33.53
2018-02-01T07:48:06.842Z,36.00
2018-02-01T07:50:35.394Z,39.60
2018-02-01T07:53:03.908Z,34.27
2018-02-01T07:55:32.450Z,34.30
2018-02-01T07:58:00.965Z,35.97
2018-02-01T08:00:29.454Z,35.37
2018-02-01T08:02:57.949Z,36.23
2018-02-01T08:05:26.432Z,36.60
2018-02-01T08:07:54.938Z,36.77
2018-02-01T08:10:23.402Z,35.77
2018-02-01T08:12:51.932Z,36.80
2018-02-01T08:15:20.401Z,36.83
2018-02-01T08:17:48.929Z,33.60
2018-02-01T08:20:17.429Z,28.87
2018-02-01T08:22:45.962Z,23.80
2018-02-01T08:25:14.488Z,24.47
2018-02-01T08:27:42.974Z,25.90
2018-02-01T08:30:11.506Z,28.17
2018-02-01T08:32:39.973Z,27.70
2018-02-01T08:35:08.434Z,29.83
2018-02-01T08:37:36.880Z,30.50
2018-02-01T08:40:05.456Z,31.93
2018-02-01T08:42:33.977Z,32.40
2018-02-01T08:45:02.477Z,31.53
2018-02-01T08:47:30.970Z,28.57
2018-02-01T08:49:59.569Z,26.67
2018-02-01T08:52:28.044Z,26.63
2018-02-01T08:54:56.557Z,30.03
2018-02-01T08:57:25.061Z,28.40
2018-02-01T08:59:53.523Z,31.93
2018-02-01T09:02:22.041Z,30.80
2018-02-01T09:04:50.505Z,28.73
2018-02-01T09:07:19.005Z,31.90
2018-02-01T09:09:47.483Z,31.17
2018-02-01T09:12:15.998Z,32.50
2018-02-01T09:14:44.519Z,35.83
2018-02-01T09:17:13.009Z,33.47
2018-02-01T09:19:41.536Z,33.13
2018-02-01T09:22:10.084Z,36.60
2018-02-01T09:24:38.582Z,35.17
2018-02-01T09:27:07.048Z,31.23
2018-02-01T09:29:35.646Z,31.70
2018-02-01T09:32:04.117Z,35.13
2018-02-01T09:34:32.590Z,30.60
2018-02-01T09:37:01.146Z,31.00
2018-02-01T09:39:29.628Z,29.73
2018-02-01T09:41:58.138Z,29.57
2018-02-01T09:44:26.661Z,28.33
2018-02-01T09:46:55.178Z,27.23
2018-02-01T09:49:23.625Z,26.90
2018-02-01T09:51:52.144Z,23.90
2018-02-01T09:54:20.637Z,20.60
2018-02-01T09:56:49.120Z,19.37
2018-02-01T09:59:17.624Z,20.90
2018-02-01T10:01:46.133Z,18.53
2018-02-01T10:04:14.629Z,19.43
2018-02-01T10:06:43.138Z,19.23
2018-02-01T10:09:11.647Z,19.30
2018-02-01T10:11:40.130Z,19.00
2018-02-01T10:14:08.621Z,20.00
2018-02-01T10:16:37.122Z,18.60
2018-02-01T10:19:05.606Z,18.97
2018-02-01T10:21:34.117Z,19.07
2018-02-01T10:24:02.561Z,19.53
2018-02-01T10:26:31.031Z,22.80
2018-02-01T10:28:59.572Z,20.67
2018-02-01T10:31:28.059Z,21.30
2018-02-01T10:33:56.561Z,20.87
2018-02-01T10:36:25.066Z,20.27
2018-02-01T10:38:53.594Z,20.90
2018-02-01T10:41:22.092Z,19.87
2018-02-01T10:43:50.558Z,18.97
2018-02-01T10:46:19.055Z,20.67
2018-02-01T10:48:47.569Z,18.23
2018-02-01T10:51:16.086Z,17.83
2018-02-01T10:53:44.601Z,17.73
2018-02-01T10:56:17.973Z,18.20
2018-02-01T10:58:46.440Z,19.60
2018-02-01T11:01:14.937Z,19.67
2018-02-01T11:03:43.437Z,17.80
2018-02-01T11:06:11.956Z,16.67
2018-02-01T11:08:40.429Z,17.70
2018-02-01T11:11:08.885Z,17.67
2018-02-01T11:13:37.406Z,18.80
2018-02-01T11:16:06.074Z,17.53
2018-02-01T11:18:34.543Z,17.47
2018-02-01T11:21:03.012Z,16.97
2018-02-01T11:23:31.554Z,16.57
2018-02-01T11:26:00.062Z,16.17
2018-02-01T11:28:28.578Z,16.90
2018-02-01T11:30:57.082Z,17.70
2018-02-01T11:33:25.595Z,16.67
2018-02-01T11:35:54.109Z,18.23
2018-02-01T11:38:22.625Z,17.77
2018-02-01T11:40:51.161Z,18.03
2018-02-01T11:43:19.625Z,17.57
2018-02-01T11:45:48.103Z,17.33
2018-02-01T11:48:16.679Z,18.07
2018-02-01T11:50:45.149Z,17.37
2018-02-01T11:53:13.657Z,19.03
2018-02-01T11:55:42.126Z,17.53
2018-02-01T11:58:10.629Z,17.00
2018-02-01T12:00:39.110Z,16.77
2018-02-01T12:03:07.669Z,16.13
2018-02-01T12:05:36.184Z,16.33
2018-02-01T12:08:04.654Z,17.87
2018-02-01T12:10:33.709Z,17.53
2018-02-01T12:13:02.170Z,18.90
2018-02-01T12:15:30.662Z,16.47
2018-02-01T12:17:59.128Z,19.50
2018-02-01T12:20:27.624Z,16.60
2018-02-01T12:22:56.118Z,17.77
2018-02-01T12:25:25.378Z,19.03
2018-02-01T12:27:53.882Z,17.33
2018-02-01T12:30:22.405Z,17.73
2018-02-01T12:32:51.128Z,17.17
2018-02-01T12:35:20.486Z,17.30
2018-02-01T12:37:49.790Z,17.40
2018-02-01T12:40:18.241Z,16.30
2018-02-01T12:42:46.731Z,18.23
2018-02-01T12:45:15.240Z,18.33
2018-02-01T12:47:43.733Z,17.87
2018-02-01T12:50:12.213Z,18.50
2018-02-01T12:52:40.682Z,19.00
2018-02-01T12:55:09.129Z,17.83
2018-02-01T12:57:37.618Z,19.33
2018-02-01T13:00:06.051Z,18.00
2018-02-01T13:02:34.562Z,18.90
2018-02-01T13:05:03.046Z,17.90
2018-02-01T13:07:31.494Z,19.20
2018-02-01T13:09:59.986Z,19.90
2018-02-01T13:12:28.490Z,19.57
2018-02-01T13:14:56.977Z,18.70
2018-02-01T13:17:25.475Z,21.47
2018-02-01T13:19:53.930Z,23.37
2018-02-01T13:22:22.419Z,20.70
2018-02-01T13:24:50.925Z,21.37
2018-02-01T13:27:19.390Z,21.30
2018-02-01T13:29:47.916Z,21.53
2018-02-01T13:32:16.390Z,21.93
2018-02-01T13:34:44.838Z,21.13
2018-02-01T13:37:13.326Z,21.03
2018-02-01T13:39:41.832Z,22.17
2018-02-01T13:42:10.281Z,22.13
2018-02-01T13:44:38.765Z,22.87
2018-02-01T13:47:07.224Z,26.60
2018-02-01T13:49:35.705Z,22.00
2018-02-01T13:52:04.163Z,21.70
2018-02-01T13:54:32.650Z,23.23
2018-02-01T13:57:01.158Z,22.33
2018-02-01T13:59:29.606Z,21.27
2018-02-01T14:01:58.121Z,21.43
2018-02-01T14:04:26.578Z,21.30
2018-02-01T14:06:55.025Z,20.17
2018-02-01T14:09:23.513Z,17.87
2018-02-01T14:11:51.963Z,17.90
2018-02-01T14:14:20.463Z,17.77
2018-02-01T14:16:49.006Z,17.90
2018-02-01T14:19:17.462Z,18.33
2018-02-01T14:21:45.989Z,17.53
2018-02-01T14:24:14.442Z,18.10
2018-02-01T14:26:43.801Z,18.13
2018-02-01T14:29:12.260Z,18.67
2018-02-01T14:31:40.745Z,17.83
2018-02-01T14:34:09.226Z,18.50
2018-02-01T14:36:37.714Z,18.93
2018-02-01T14:39:06.230Z,18.20
2018-02-01T14:41:34.691Z,19.33
2018-02-01T14:44:03.181Z,18.30
2018-02-01T14:46:31.638Z,18.70
2018-02-01T14:49:00.129Z,17.40
2018-02-01T14:51:28.591Z,17.67
2018-02-01T14:53:58.091Z,17.80
2018-02-01T14:56:26.598Z,18.17
2018-02-01T14:58:55.085Z,17.67
2018-02-01T15:01:23.541Z,18.23
2018-02-01T15:03:52.125Z,19.50
2018-02-01T15:06:20.570Z,23.07
2018-02-01T15:08:49.067Z,26.80
2018-02-01T15:11:17.573Z,26.37
2018-02-01T15:13:46.021Z,27.80
2018-02-01T15:16:14.502Z,27.23
2018-02-01T15:18:42.998Z,28.83
2018-02-01T15:21:11.481Z,28.97
2018-02-01T15:23:39.933Z,29.23
2018-02-01T15:26:08.417Z,29.80
2018-02-01T15:28:36.901Z,28.57
2018-02-01T15:31:05.361Z,29.47
2018-02-01T15:33:33.860Z,30.20
2018-02-01T15:36:02.341Z,31.40
2018-02-01T15:38:30.829Z,33.27
2018-02-01T15:40:59.318Z,31.43
2018-02-01T15:43:27.841Z,31.17
2018-02-01T15:45:56.301Z,29.53
2018-02-01T15:48:24.785Z,30.63
2018-02-01T15:50:53.236Z,30.10
2018-02-01T15:53:21.721Z,34.77
2018-02-01T15:55:50.213Z,54.37
2018-02-01T15:58:18.693Z,39.47
2018-02-01T16:00:47.147Z,33.73
2018-02-01T16:03:15.633Z,31.73
2018-02-01T16:05:44.146Z,33.40
2018-02-01T16:08:12.589Z,33.87
2018-02-01T16:10:41.038Z,33.13
2018-02-01T16:13:09.527Z,31.80
2018-02-01T16:15:38.023Z,33.07
2018-02-01T16:18:06.621Z,31.20
2018-02-01T16:20:35.082Z,29.23
2018-02-01T16:23:03.573Z,29.30
2018-02-01T16:25:32.022Z,30.83
2018-02-01T16:28:00.520Z,32.73
2018-02-01T16:30:28.971Z,33.57
2018-02-01T16:32:57.453Z,66.97
2018-02-01T16:35:25.942Z,37.73
2018-02-01T16:37:54.386Z,32.80
2018-02-01T16:40:22.868Z,28.90
2018-02-01T16:42:51.407Z,31.67
2018-02-01T16:45:19.850Z,27.77
2018-02-01T16:47:48.325Z,27.27
2018-02-01T16:50:16.774Z,29.63
2018-02-01T16:52:45.261Z,32.33
2018-02-01T16:55:13.710Z,30.10
2018-02-01T16:57:42.149Z,29.27
2018-02-01T17:00:10.638Z,33.33
2018-02-01T17:02:39.077Z,33.53
2018-02-01T17:05:07.557Z,37.57
2018-02-01T17:07:36.002Z,33.97
2018-02-01T17:10:04.481Z,33.93
2018-02-01T17:12:32.925Z,36.70
2018-02-01T17:15:01.397Z,39.63
2018-02-01T17:17:29.873Z,38.47
2018-02-01T17:19:58.326Z,36.53
2018-02-01T17:22:26.801Z,39.57
2018-02-01T17:24:55.251Z,46.00
2018-02-01T17:27:23.711Z,66.03
2018-02-01T17:29:52.189Z,46.53
2018-02-01T17:32:20.661Z,42.27
2018-02-01T17:34:49.110Z,37.57
2018-02-01T17:37:17.589Z,41.63
2018-02-01T17:39:46.080Z,36.40
2018-02-01T17:42:14.601Z,36.77
2018-02-01T17:44:43.049Z,35.47
2018-02-01T17:47:11.533Z,35.33
2018-02-01T17:49:39.986Z,35.20
2018-02-01T17:52:08.470Z,35.13
2018-02-01T17:54:36.914Z,33.80
2018-02-01T17:57:05.390Z,33.93
2018-02-01T17:59:33.865Z,36.37
2018-02-01T18:02:02.310Z,34.67
2018-02-01T18:04:30.830Z,34.07
2018-02-01T18:06:59.314Z,34.07
2018-02-01T18:09:27.818Z,34.67
2018-02-01T18:11:56.294Z,36.93
2018-02-01T18:14:24.784Z,42.20
2018-02-01T18:16:53.226Z,40.97
2018-02-01T18:19:21.705Z,40.87
2018-02-01T18:21:50.186Z,38.67
2018-02-01T18:24:18.629Z,41.53
2018-02-01T18:26:47.110Z,44.47
2018-02-01T18:29:15.554Z,47.40
2018-02-01T18:31:44.034Z,48.53
2018-02-01T18:34:12.472Z,43.30
2018-02-01T18:36:41.945Z,45.03
2018-02-01T18:39:10.433Z,54.47
2018-02-01T18:41:38.925Z,52.37
2018-02-01T18:44:07.401Z,55.17
2018-02-01T18:46:35.908Z,51.63
2018-02-01T18:49:04.360Z,52.03
2018-02-01T18:51:32.853Z,54.07
2018-02-01T18:54:01.377Z,45.20
2018-02-01T18:56:29.853Z,45.83
2018-02-01T18:58:58.293Z,47.97
2018-02-01T19:01:26.774Z,46.67
2018-02-01T19:03:55.237Z,46.90
2018-02-01T19:06:23.713Z,46.87
2018-02-01T19:08:52.198Z,47.40
2018-02-01T19:11:20.676Z,46.33
2018-02-01T19:13:49.118Z,46.10
2018-02-01T19:16:17.611Z,48.10
2018-02-01T19:18:46.053Z,45.57
2018-02-01T19:21:14.536Z,44.50
2018-02-01T19:23:43.017Z,49.03
2018-02-01T19:26:11.497Z,49.07
2018-02-01T19:28:39.951Z,44.60
2018-02-01T19:31:08.465Z,44.30
2018-02-01T19:33:36.921Z,38.77
2018-02-01T19:36:05.405Z,44.60
2018-02-01T19:38:33.869Z,43.57
2018-02-01T19:41:02.385Z,37.83
2018-02-01T19:43:30.829Z,41.80
2018-02-01T19:45:59.329Z,41.57
2018-02-01T19:48:27.776Z,40.80
2018-02-01T19:50:56.267Z,43.27
2018-02-01T19:53:24.751Z,42.27
2018-02-01T19:55:53.208Z,41.80
2018-02-01T19:58:21.653Z,40.23
2018-02-01T20:00:50.158Z,37.23
2018-02-01T20:03:18.620Z,43.23
2018-02-01T20:05:47.106Z,42.10
2018-02-01T20:08:15.565Z,43.60
2018-02-01T20:10:44.037Z,40.97
2018-02-01T20:13:12.502Z,42.43
2018-02-01T20:15:40.969Z,39.50
2018-02-01T20:18:09.421Z,39.83
2018-02-01T20:20:37.899Z,40.43
2018-02-01T20:23:06.377Z,39.33
2018-02-01T20:25:34.883Z,40.20
2018-02-01T20:28:03.344Z,41.90
2018-02-01T20:30:31.785Z,40.67
2018-02-01T20:33:00.261Z,40.17
2018-02-01T20:35:28.737Z,42.13
2018-02-01T20:37:57.181Z,39.93
2018-02-01T20:40:25.657Z,39.37
2018-02-01T20:42:54.138Z,40.00
2018-02-01T20:45:22.603Z,43.47
2018-02-01T20:47:51.085Z,45.03
2018-02-01T20:50:19.530Z,43.97
2018-02-01T20:52:48.005Z,46.50
2018-02-01T20:55:16.513Z,46.70
2018-02-01T20:57:45.018Z,48.17
2018-02-01T21:00:13.489Z,48.20
2018-02-01T21:02:41.969Z,46.77
2018-02-01T21:05:10.463Z,52.83
2018-02-01T21:07:38.906Z,54.87
2018-02-01T21:10:07.389Z,58.00
2018-02-01T21:12:35.834Z,55.80
2018-02-01T21:15:04.352Z,52.33
2018-02-01T21:17:32.817Z,49.57
2018-02-01T21:20:01.299Z,49.93
2018-02-01T21:22:29.778Z,51.20
2018-02-01T21:24:58.232Z,51.03
2018-02-01T21:27:26.719Z,49.33
2018-02-01T21:29:55.175Z,47.33
2018-02-01T21:32:23.639Z,51.53
2018-02-01T21:34:52.107Z,52.30
2018-02-01T21:37:20.589Z,54.27
2018-02-01T21:39:49.058Z,56.67
2018-02-01T21:42:17.534Z,56.33
2018-02-01T21:44:46.009Z,53.57
2018-02-01T21:47:14.450Z,55.50
2018-02-01T21:49:42.934Z,53.80
2018-02-01T21:52:11.397Z,52.03
2018-02-01T21:54:39.889Z,52.43
2018-02-01T21:57:08.354Z,51.87
2018-02-01T21:59:36.827Z,50.70
2018-02-01T22:02:05.313Z,53.43
2018-02-01T22:04:33.921Z,53.50
2018-02-01T22:07:02.378Z,54.03
2018-02-01T22:09:30.841Z,51.03
2018-02-01T22:11:59.333Z,53.20
2018-02-01T22:14:27.806Z,55.77
2018-02-01T22:16:56.314Z,58.80
2018-02-01T22:19:24.792Z,67.20
2018-02-01T22:21:53.260Z,69.70
2018-02-01T22:24:21.756Z,66.37
2018-02-01T22:26:50.250Z,66.33
2018-02-01T22:29:18.715Z,62.77
2018-02-01T22:31:47.225Z,61.20
2018-02-01T22:34:15.668Z,58.37
2018-02-01T22:36:44.158Z,57.93
2018-02-01T22:39:12.645Z,56.87
2018-02-01T22:41:41.116Z,59.40
2018-02-01T22:44:09.617Z,61.93
2018-02-01T22:46:38.145Z,56.70
2018-02-01T22:49:06.602Z,57.27
2018-02-01T22:51:35.127Z,57.60
2018-02-01T22:54:03.634Z,55.27
2018-02-01T22:56:32.089Z,55.70
2018-02-01T22:59:01.524Z,54.90
2018-02-01T23:01:30.034Z,54.37
2018-02-01T23:03:58.569Z,50.20
2018-02-01T23:06:27.045Z,52.57
2018-02-01T23:08:55.538Z,52.23
2018-02-01T23:11:24.096Z,54.90
2018-02-01T23:13:52.612Z,64.40
2018-02-01T23:16:21.114Z,65.80
2018-02-01T23:18:49.589Z,64.40
2018-02-01T23:21:18.049Z,66.10
2018-02-01T23:23:46.553Z,66.67
2018-02-01T23:26:15.046Z,65.53
2018-02-01T23:28:43.541Z,65.97
2018-02-01T23:31:12.035Z,67.47
2018-02-01T23:33:40.565Z,66.53
2018-02-01T23:36:09.063Z,63.60
2018-02-01T23:38:37.518Z,61.43
2018-02-01T23:41:06.011Z,61.10
2018-02-01T23:43:34.502Z,61.13
2018-02-01T23:46:02.990Z,59.40
2018-02-01T23:48:31.474Z,58.57
2018-02-01T23:50:59.966Z,58.23
2018-02-01T23:53:28.510Z,56.67
2018-02-01T23:55:57.023Z,56.57
2018-02-01T23:58:25.506Z,58.13
